createdAt,value
2022-08-04T00:02:40.189Z,99591.56
2022-08-04T00:05:18.192Z,99593.28
2022-08-04T00:07:54.739Z,99597.66
2022-08-04T00:10:23.198Z,99589.03
2022-08-04T00:12:52.441Z,99598.13
2022-08-04T00:15:20.283Z,99597.50
2022-08-04T00:18:07.909Z,99598.44
2022-08-04T00:20:39.480Z,99596.22
2022-08-04T00:23:08.217Z,99593.56
2022-08-04T00:25:40.779Z,99596.78
2022-08-04T00:28:08.031Z,99594.84
2022-08-04T00:30:35.661Z,99588.50
2022-08-04T00:33:03.911Z,99601.28
2022-08-04T00:35:33.394Z,99591.66
2022-08-04T00:38:01.693Z,99595.19
2022-08-04T00:40:35.496Z,99603.22
2022-08-04T00:43:19.164Z,99592.72
2022-08-04T00:46:17.440Z,99603.69
2022-08-04T00:49:15.392Z,99614.16
2022-08-04T00:52:31.392Z,99609.53
2022-08-04T00:55:40.720Z,99614.34
2022-08-04T00:58:19.031Z,99614.75
2022-08-04T01:01:02.177Z,99616.97
2022-08-04T01:03:41.369Z,99614.03
2022-08-04T01:06:30.661Z,99616.38
2022-08-04T01:09:09.699Z,99620.84
2022-08-04T01:11:57.400Z,99628.81
2022-08-04T01:15:02.573Z,99619.88
2022-08-04T01:18:00.168Z,99621.47
2022-08-04T01:20:33.581Z,99621.72
2022-08-04T01:23:06.739Z,99619.75
2022-08-04T01:26:01.567Z,99616.22
2022-08-04T01:28:56.241Z,99618.09
2022-08-04T01:31:35.053Z,99614.44
2022-08-04T01:34:06.770Z,99629.31
2022-08-04T01:36:38.028Z,99620.47
2022-08-04T01:39:25.231Z,99622.34
2022-08-04T01:41:58.205Z,99622.34
2022-08-04T01:44:29.788Z,99625.84
2022-08-04T01:46:57.251Z,99627.66
2022-08-04T01:49:30.157Z,99623.28
2022-08-04T01:52:10.406Z,99626.78
2022-08-04T01:54:41.638Z,99626.97
2022-08-04T01:57:46.123Z,99630.53
2022-08-04T02:00:00.071Z,99640.09
2022-08-04T02:02:27.759Z,99621.78
2022-08-04T02:04:54.876Z,99636.44
2022-08-04T02:07:25.175Z,99634.53
2022-08-04T02:10:15.528Z,99622.97
2022-08-04T02:13:32.369Z,99635.88
2022-08-04T02:16:16.495Z,99617.50
2022-08-04T02:18:58.033Z,99638.75
2022-08-04T02:21:27.896Z,99635.47
2022-08-04T02:24:15.009Z,99624.28
2022-08-04T02:26:48.977Z,99637.34
2022-08-04T02:29:16.477Z,99636.03
2022-08-04T02:32:00.849Z,99633.00
2022-08-04T02:34:47.906Z,99635.69
2022-08-04T02:37:17.630Z,99628.81
2022-08-04T02:39:49.644Z,99640.59
2022-08-04T02:42:17.310Z,99634.97
2022-08-04T02:44:50.562Z,99637.06
2022-08-04T02:47:21.252Z,99637.31
2022-08-04T02:49:51.307Z,99646.44
2022-08-04T02:52:26.086Z,99635.19
2022-08-04T02:54:56.094Z,99631.66
2022-08-04T02:57:29.564Z,99643.72
2022-08-04T03:00:15.669Z,99628.13
2022-08-04T03:02:50.690Z,99651.81
2022-08-04T03:05:20.401Z,99652.19
2022-08-04T03:08:12.530Z,99642.97
2022-08-04T03:10:58.042Z,99641.09
2022-08-04T03:13:45.437Z,99647.88
2022-08-04T03:16:38.499Z,99644.88
2022-08-04T03:19:28.611Z,99643.63
2022-08-04T03:22:17.621Z,99648.44
2022-08-04T03:25:15.609Z,99648.88
2022-08-04T03:27:57.723Z,99652.22
2022-08-04T03:30:51.988Z,99643.81
2022-08-04T03:33:47.569Z,99649.81
2022-08-04T03:36:31.873Z,99648.44
2022-08-04T03:39:02.141Z,99653.19
2022-08-04T03:41:51.639Z,99642.09
2022-08-04T03:44:52.807Z,99656.63
2022-08-04T03:47:47.634Z,99654.41
2022-08-04T03:50:26.071Z,99657.97
2022-08-04T03:53:27.578Z,99662.72
2022-08-04T03:56:05.979Z,99659.63
2022-08-04T03:59:00.734Z,99660.13
2022-08-04T04:02:03.041Z,99664.91
2022-08-04T04:04:56.717Z,99658.03
2022-08-04T04:07:39.221Z,99665.63
2022-08-04T04:10:43.432Z,99668.88
2022-08-04T04:13:20.571Z,99668.38
2022-08-04T04:16:02.608Z,99671.03
2022-08-04T04:18:48.584Z,99669.19
2022-08-04T04:21:40.768Z,99673.56
2022-08-04T04:24:57.346Z,99666.31
2022-08-04T04:28:44.693Z,99674.94
2022-08-04T04:30:57.358Z,99676.75
2022-08-04T04:33:35.837Z,99671.72
2022-08-04T04:36:18.527Z,99681.69
2022-08-04T04:39:03.961Z,99677.72
2022-08-04T04:41:37.247Z,99676.78
2022-08-04T04:44:30.459Z,99679.66
2022-08-04T04:47:14.805Z,99675.59
2022-08-04T04:49:52.846Z,99689.78
2022-08-04T04:52:29.133Z,99684.78
2022-08-04T04:55:02.892Z,99689.63
2022-08-04T04:57:54.448Z,99683.31
2022-08-04T05:00:26.681Z,99685.03
2022-08-04T05:03:08.992Z,99687.88
2022-08-04T05:06:04.018Z,99697.38
2022-08-04T05:09:02.726Z,99691.69
2022-08-04T05:11:48.120Z,99695.63
2022-08-04T05:14:39.070Z,99691.44
2022-08-04T05:17:42.259Z,99693.28
2022-08-04T05:20:12.534Z,99692.69
2022-08-04T05:23:05.535Z,99677.16
2022-08-04T05:25:58.925Z,99687.06
2022-08-04T05:28:43.761Z,99684.03
2022-08-04T05:31:24.472Z,99681.44
2022-08-04T05:33:56.142Z,99684.19
2022-08-04T05:36:41.014Z,99676.53
2022-08-04T05:39:14.623Z,99671.44
2022-08-04T05:41:45.938Z,99669.88
2022-08-04T05:44:19.993Z,99677.44
2022-08-04T05:46:53.687Z,99671.81
2022-08-04T05:49:27.088Z,99680.69
2022-08-04T05:52:01.737Z,99679.38
2022-08-04T05:54:31.604Z,99691.44
2022-08-04T05:56:59.231Z,99683.63
2022-08-04T05:59:27.517Z,99680.91
2022-08-04T06:02:01.687Z,99682.94
2022-08-04T06:04:34.678Z,99689.38
2022-08-04T06:07:02.241Z,99689.88
2022-08-04T06:09:30.512Z,99680.56
2022-08-04T06:12:04.338Z,99691.81
2022-08-04T06:14:36.883Z,99687.41
2022-08-04T06:18:33.751Z,99683.63
2022-08-04T06:20:18.055Z,99690.16
2022-08-04T06:22:47.228Z,99686.03
2022-08-04T06:25:21.213Z,99681.78
2022-08-04T06:27:55.093Z,99681.03
2022-08-04T06:30:26.493Z,99682.16
2022-08-04T06:33:04.722Z,99679.72
2022-08-04T06:35:34.099Z,99692.22
2022-08-04T06:38:03.203Z,99679.03
2022-08-04T06:40:34.430Z,99677.41
2022-08-04T06:43:08.077Z,99680.00
2022-08-04T06:45:40.075Z,99680.94
2022-08-04T06:48:09.093Z,99668.22
2022-08-04T06:51:24.570Z,99686.72
2022-08-04T06:53:25.565Z,99692.25
2022-08-04T06:55:56.578Z,99696.53
2022-08-04T06:58:29.950Z,99679.19
2022-08-04T07:01:02.228Z,99685.66
2022-08-04T07:03:32.875Z,99675.28
2022-08-04T07:06:05.789Z,99689.16
2022-08-04T07:08:35.514Z,99685.69
2022-08-04T07:11:02.839Z,99679.50
2022-08-04T07:13:44.606Z,99668.97
2022-08-04T07:16:16.392Z,99692.03
2022-08-04T07:18:44.326Z,99676.75
2022-08-04T07:21:18.179Z,99668.19
2022-08-04T07:23:46.305Z,99672.81
2022-08-04T07:26:15.867Z,99666.28
2022-08-04T07:28:46.198Z,99673.81
2022-08-04T07:31:34.593Z,99675.50
2022-08-04T07:34:20.953Z,99683.31
2022-08-04T07:36:53.132Z,99671.78
2022-08-04T07:39:28.319Z,99677.91
2022-08-04T07:41:58.539Z,99680.13
2022-08-04T07:44:26.055Z,99681.06
2022-08-04T07:46:53.667Z,99673.09
2022-08-04T07:49:55.707Z,99668.91
2022-08-04T07:52:11.998Z,99664.84
2022-08-04T07:54:39.765Z,99665.28
2022-08-04T07:57:06.908Z,99674.38
2022-08-04T07:59:36.114Z,99669.56
2022-08-04T08:02:03.887Z,99671.72
2022-08-04T08:04:33.818Z,99672.31
2022-08-04T08:07:03.132Z,99680.72
2022-08-04T08:09:33.559Z,99667.53
2022-08-04T08:12:35.504Z,99673.63
2022-08-04T08:14:49.671Z,99664.53
2022-08-04T08:17:17.703Z,99669.75
2022-08-04T08:19:51.331Z,99668.97
2022-08-04T08:22:20.927Z,99673.03
2022-08-04T08:24:48.062Z,99673.31
2022-08-04T08:27:19.429Z,99682.00
2022-08-04T08:29:48.017Z,99673.63
2022-08-04T08:32:16.193Z,99669.00
2022-08-04T08:34:48.639Z,99666.97
2022-08-04T08:37:31.130Z,99687.22
2022-08-04T08:40:00.445Z,99677.94
2022-08-04T08:44:06.106Z,99679.34
2022-08-04T08:46:07.568Z,99685.63
2022-08-04T08:48:56.850Z,99675.34
2022-08-04T08:51:36.079Z,99682.00
2022-08-04T08:54:18.758Z,99680.16
2022-08-04T08:56:58.503Z,99685.19
2022-08-04T08:59:37.939Z,99680.75
2022-08-04T09:02:47.315Z,99678.06
2022-08-04T09:05:42.744Z,99668.69
2022-08-04T09:08:40.961Z,99657.72
2022-08-04T09:11:19.741Z,99671.50
2022-08-04T09:14:25.789Z,99674.34
2022-08-04T09:17:04.569Z,99661.72
2022-08-04T09:19:44.009Z,99664.25
2022-08-04T09:22:35.896Z,99681.66
2022-08-04T09:25:10.878Z,99673.41
2022-08-04T09:27:41.021Z,99668.28
2022-08-04T09:30:10.650Z,99652.16
2022-08-04T09:33:02.615Z,99667.53
2022-08-04T09:35:48.268Z,99668.31
2022-08-04T09:38:40.885Z,99668.59
2022-08-04T09:41:54.171Z,99660.66
2022-08-04T09:44:53.216Z,99666.63
2022-08-04T09:47:40.681Z,99672.28
2022-08-04T09:50:31.039Z,99662.78
2022-08-04T09:53:18.043Z,99667.50
2022-08-04T09:56:08.109Z,99645.66
2022-08-04T09:58:49.686Z,99656.13
2022-08-04T10:01:23.619Z,99660.72
2022-08-04T10:03:57.513Z,99642.94
2022-08-04T10:06:30.384Z,99664.47
2022-08-04T10:08:57.469Z,99653.22
2022-08-04T10:11:54.421Z,99650.50
2022-08-04T10:14:35.191Z,99656.81
2022-08-04T10:17:34.320Z,99661.16
2022-08-04T10:20:16.045Z,99654.31
2022-08-04T10:23:13.565Z,99645.63
2022-08-04T10:26:19.998Z,99662.28
2022-08-04T10:28:54.786Z,99653.69
2022-08-04T10:31:30.206Z,99643.06
2022-08-04T10:34:13.396Z,99658.91
2022-08-04T10:36:54.219Z,99653.69
2022-08-04T10:39:43.337Z,99660.72
2022-08-04T10:42:34.438Z,99659.06
2022-08-04T10:45:27.757Z,99668.75
2022-08-04T10:48:18.511Z,99654.16
2022-08-04T10:51:18.822Z,99658.94
2022-08-04T10:53:51.963Z,99651.88
2022-08-04T10:56:52.055Z,99656.16
2022-08-04T10:59:38.869Z,99671.34
2022-08-04T11:02:26.501Z,99668.72
2022-08-04T11:05:11.633Z,99667.19
2022-08-04T11:07:42.683Z,99654.78
2022-08-04T11:10:16.098Z,99656.69
2022-08-04T11:12:53.937Z,99669.63
2022-08-04T11:15:55.451Z,99678.84
2022-08-04T11:19:03.968Z,99676.47
2022-08-04T11:21:39.756Z,99675.34
2022-08-04T11:24:18.430Z,99672.53
2022-08-04T11:26:56.609Z,99672.88
2022-08-04T11:29:38.670Z,99673.75
2022-08-04T11:32:20.130Z,99671.38
2022-08-04T11:35:00.532Z,99666.81
2022-08-04T11:37:50.718Z,99665.72
2022-08-04T11:40:28.210Z,99665.84
2022-08-04T11:43:14.447Z,99667.13
2022-08-04T11:46:13.122Z,99659.03
2022-08-04T11:48:50.955Z,99652.44
2022-08-04T11:51:27.185Z,99664.16
2022-08-04T11:53:56.013Z,99667.88
2022-08-04T11:56:35.885Z,99665.41
2022-08-04T11:59:12.434Z,99666.53
2022-08-04T12:02:05.471Z,99660.09
2022-08-04T12:04:54.132Z,99660.22
2022-08-04T12:07:44.190Z,99650.16
2022-08-04T12:10:41.593Z,99659.09
2022-08-04T12:13:29.624Z,99663.97
2022-08-04T12:16:07.336Z,99655.56
2022-08-04T12:18:52.565Z,99647.16
2022-08-04T12:21:37.265Z,99650.88
2022-08-04T12:24:17.023Z,99648.47
2022-08-04T12:26:56.434Z,99649.31
2022-08-04T12:29:26.080Z,99640.63
2022-08-04T12:32:01.106Z,99650.50
2022-08-04T12:34:55.857Z,99642.78
2022-08-04T12:37:53.426Z,99620.91
2022-08-04T12:40:28.719Z,99618.06
2022-08-04T12:43:19.325Z,99625.28
2022-08-04T12:45:55.449Z,99635.66
2022-08-04T12:48:25.543Z,99620.00
2022-08-04T12:50:54.627Z,99626.00
2022-08-04T12:53:34.584Z,99614.91
2022-08-04T12:56:26.976Z,99623.59
2022-08-04T12:59:04.411Z,99618.31
2022-08-04T13:02:06.951Z,99628.56
2022-08-04T13:04:29.302Z,99618.59
2022-08-04T13:07:13.847Z,99633.97
2022-08-04T13:09:41.457Z,99632.25
2022-08-04T13:12:32.873Z,99631.38
2022-08-04T13:15:17.949Z,99627.66
2022-08-04T13:18:00.326Z,99626.47
2022-08-04T13:20:39.064Z,99621.91
2022-08-04T13:23:11.760Z,99630.47
2022-08-04T13:26:43.882Z,99620.06
2022-08-04T13:28:36.470Z,99613.81
2022-08-04T13:31:07.607Z,99620.25
2022-08-04T13:33:41.497Z,99610.00
2022-08-04T13:36:11.207Z,99602.91
2022-08-04T13:38:54.861Z,99616.84
2022-08-04T13:41:30.856Z,99597.94
2022-08-04T13:44:18.119Z,99610.00
2022-08-04T13:47:22.654Z,99605.69
2022-08-04T13:50:37.647Z,99616.78
2022-08-04T13:53:07.436Z,99606.69
2022-08-04T13:55:40.692Z,99604.84
2022-08-04T13:58:19.391Z,99605.97
2022-08-04T14:01:07.071Z,99599.72
2022-08-04T14:03:54.266Z,99603.84
2022-08-04T14:06:29.098Z,99585.78
2022-08-04T14:09:02.866Z,99591.19
2022-08-04T14:12:06.656Z,99597.75
2022-08-04T14:14:47.365Z,99598.00
2022-08-04T14:17:34.766Z,99581.78
2022-08-04T14:20:05.194Z,99600.25
2022-08-04T14:22:35.528Z,99592.56
2022-08-04T14:25:18.725Z,99575.50
2022-08-04T14:27:56.815Z,99593.69
2022-08-04T14:30:37.729Z,99585.41
2022-08-04T14:34:02.229Z,99588.50
2022-08-04T14:36:07.481Z,99591.22
2022-08-04T14:38:53.715Z,99580.53
2022-08-04T14:41:26.092Z,99583.75
2022-08-04T14:44:08.502Z,99593.66
2022-08-04T14:46:53.999Z,99586.97
2022-08-04T14:49:25.027Z,99595.19
2022-08-04T14:51:58.418Z,99575.81
2022-08-04T14:54:34.295Z,99602.72
2022-08-04T14:57:18.898Z,99595.88
2022-08-04T15:00:00.721Z,99593.56
2022-08-04T15:02:32.625Z,99588.00
2022-08-04T15:06:00.966Z,99600.22
2022-08-04T15:07:59.815Z,99606.47
2022-08-04T15:10:32.143Z,99605.88
2022-08-04T15:13:01.012Z,99603.44
2022-08-04T15:15:41.398Z,99601.28
2022-08-04T15:18:14.439Z,99604.50
2022-08-04T15:20:43.828Z,99598.41
2022-08-04T15:23:11.943Z,99602.22
2022-08-04T15:25:47.240Z,99608.31
2022-08-04T15:28:22.801Z,99602.22
2022-08-04T15:30:58.362Z,99596.34
2022-08-04T15:33:34.936Z,99597.59
2022-08-04T15:36:32.637Z,99603.13
2022-08-04T15:39:42.706Z,99610.13
2022-08-04T15:42:21.783Z,99599.53
2022-08-04T15:45:01.399Z,99596.00
2022-08-04T15:47:32.076Z,99593.81
2022-08-04T15:50:09.867Z,99608.00
2022-08-04T15:53:00.720Z,99609.38
2022-08-04T15:55:44.514Z,99602.78
2022-08-04T15:58:26.230Z,99606.13
2022-08-04T16:00:56.164Z,99611.75
2022-08-04T16:03:58.744Z,99611.16
2022-08-04T16:06:28.835Z,99616.94
2022-08-04T16:09:11.410Z,99612.06
2022-08-04T16:11:49.244Z,99610.22
2022-08-04T16:14:46.163Z,99603.59
2022-08-04T16:17:19.224Z,99631.16
2022-08-04T16:20:08.633Z,99613.16
2022-08-04T16:22:49.068Z,99616.34
2022-08-04T16:25:52.185Z,99621.50
2022-08-04T16:28:43.705Z,99622.47
2022-08-04T16:31:13.887Z,99608.28
2022-08-04T16:33:43.816Z,99619.03
2022-08-04T16:36:16.908Z,99603.53
2022-08-04T16:39:26.772Z,99630.06
2022-08-04T16:41:54.619Z,99621.38
2022-08-04T16:44:53.129Z,99629.78
2022-08-04T16:47:49.167Z,99629.16
2022-08-04T16:50:38.871Z,99629.25
2022-08-04T16:54:03.742Z,99621.03
2022-08-04T16:56:11.438Z,99611.31
2022-08-04T16:58:53.817Z,99630.13
2022-08-04T17:01:33.653Z,99623.94
2022-08-04T17:04:07.227Z,99616.69
2022-08-04T17:06:41.732Z,99626.84
2022-08-04T17:09:26.763Z,99630.63
2022-08-04T17:12:00.785Z,99633.56
2022-08-04T17:14:32.184Z,99648.19
2022-08-04T17:17:03.159Z,99632.63
2022-08-04T17:19:48.079Z,99635.66
2022-08-04T17:22:17.243Z,99644.50
2022-08-04T17:24:51.424Z,99628.78
2022-08-04T17:30:37.184Z,99644.94
2022-08-04T17:33:22.724Z,99652.78
2022-08-04T17:36:12.838Z,99650.00
2022-08-04T17:38:45.951Z,99654.28
2022-08-04T17:41:30.534Z,99638.31
2022-08-04T17:44:43.655Z,99650.63
2022-08-04T17:47:19.628Z,99644.28
2022-08-04T17:49:53.571Z,99649.63
2022-08-04T17:52:41.478Z,99641.28
2022-08-04T17:55:20.497Z,99633.66
2022-08-04T17:58:20.940Z,99641.69
2022-08-04T18:01:24.045Z,99651.34
2022-08-04T18:04:02.319Z,99655.09
2022-08-04T18:06:32.596Z,99655.09
2022-08-04T18:09:22.260Z,99658.59
2022-08-04T18:12:19.017Z,99648.31
2022-08-04T18:14:58.985Z,99651.94
2022-08-04T18:18:21.330Z,99658.28
2022-08-04T18:20:39.684Z,99658.03
2022-08-04T18:23:20.422Z,99638.94
2022-08-04T18:26:03.847Z,99659.94
2022-08-04T18:28:33.476Z,99653.94
2022-08-04T18:31:04.544Z,99665.63
2022-08-04T18:33:56.910Z,99658.88
2022-08-04T18:36:57.527Z,99666.34
2022-08-04T18:40:09.767Z,99655.94
2022-08-04T18:42:18.248Z,99667.22
2022-08-04T18:45:02.289Z,99656.59
2022-08-04T18:47:54.386Z,99667.56
2022-08-04T18:51:01.836Z,99666.41
2022-08-04T18:53:16.002Z,99667.09
2022-08-04T18:55:56.441Z,99662.81
2022-08-04T18:58:33.606Z,99670.16
2022-08-04T19:01:13.607Z,99671.66
2022-08-04T19:03:57.852Z,99672.84
2022-08-04T19:06:33.486Z,99663.38
2022-08-04T19:09:10.003Z,99674.00
2022-08-04T19:11:55.670Z,99673.38
2022-08-04T19:14:23.053Z,99670.47
2022-08-04T19:17:03.906Z,99675.53
2022-08-04T19:19:47.540Z,99686.03
2022-08-04T19:22:35.675Z,99675.94
2022-08-04T19:25:09.624Z,99683.47
2022-08-04T19:27:45.814Z,99675.88
2022-08-04T19:30:55.382Z,99673.81
2022-08-04T19:33:59.382Z,99679.72
2022-08-04T19:36:46.130Z,99679.72
2022-08-04T19:39:24.897Z,99690.75
2022-08-04T19:42:05.099Z,99685.94
2022-08-04T19:44:55.546Z,99680.13
2022-08-04T19:48:11.476Z,99687.09
2022-08-04T19:50:27.128Z,99685.81
2022-08-04T19:53:04.235Z,99691.56
2022-08-04T19:55:57.401Z,99681.47
2022-08-04T19:58:31.899Z,99683.28
2022-08-04T20:01:31.282Z,99681.69
2022-08-04T20:04:11.267Z,99673.75
2022-08-04T20:06:43.474Z,99684.63
2022-08-04T20:09:25.098Z,99686.03
2022-08-04T20:11:56.159Z,99683.03
2022-08-04T20:14:31.706Z,99689.69
2022-08-04T20:17:01.733Z,99678.84
2022-08-04T20:19:30.401Z,99680.59
2022-08-04T20:21:58.412Z,99678.31
2022-08-04T20:24:36.477Z,99680.91
2022-08-04T20:27:08.919Z,99682.28
2022-08-04T20:29:40.677Z,99679.50
2022-08-04T20:32:09.858Z,99669.75
2022-08-04T20:34:38.057Z,99686.03
2022-08-04T20:37:07.473Z,99686.03
2022-08-04T20:39:38.305Z,99680.03
2022-08-04T20:42:06.551Z,99678.09
2022-08-04T20:44:33.948Z,99678.09
2022-08-04T20:47:01.566Z,99676.91
2022-08-04T20:49:35.166Z,99683.34
2022-08-04T20:52:13.270Z,99680.88
2022-08-04T20:54:48.353Z,99685.50
2022-08-04T20:57:48.218Z,99685.19
2022-08-04T21:00:04.659Z,99692.69
2022-08-04T21:02:31.900Z,99673.91
2022-08-04T21:04:59.227Z,99678.31
2022-08-04T21:07:27.238Z,99684.31
2022-08-04T21:09:54.523Z,99686.44
2022-08-04T21:12:27.824Z,99687.91
2022-08-04T21:15:13.459Z,99678.66
2022-08-04T21:17:56.641Z,99694.00
2022-08-04T21:20:27.285Z,99691.09
2022-08-04T21:22:55.225Z,99693.44
2022-08-04T21:25:26.867Z,99679.97
2022-08-04T21:27:54.401Z,99688.97
2022-08-04T21:30:26.850Z,99691.97
2022-08-04T21:32:55.196Z,99687.97
2022-08-04T21:35:37.110Z,99695.25
2022-08-04T21:38:16.350Z,99702.63
2022-08-04T21:41:11.052Z,99701.97
2022-08-04T21:43:47.369Z,99680.97
2022-08-04T21:46:15.228Z,99691.28
2022-08-04T21:48:45.495Z,99694.91
2022-08-04T21:51:57.333Z,99702.16
2022-08-04T21:54:08.491Z,99694.63
2022-08-04T21:56:38.117Z,99707.06
2022-08-04T21:59:11.573Z,99705.53
2022-08-04T22:01:52.366Z,99696.28
2022-08-04T22:04:22.160Z,99705.25
2022-08-04T22:06:52.057Z,99700.88
2022-08-04T22:09:21.646Z,99693.91
2022-08-04T22:11:51.777Z,99707.94
2022-08-04T22:14:27.542Z,99701.72
2022-08-04T22:16:58.515Z,99700.97
2022-08-04T22:19:50.725Z,99702.69
2022-08-04T22:22:24.475Z,99692.06
2022-08-04T22:25:02.000Z,99693.81
2022-08-04T22:28:00.776Z,99702.38
2022-08-04T22:30:33.135Z,99692.53
2022-08-04T22:33:07.679Z,99700.38
2022-08-04T22:35:44.117Z,99698.78
2022-08-04T22:38:24.146Z,99699.44
2022-08-04T22:41:18.074Z,99697.81
2022-08-04T22:43:46.086Z,99705.72
2022-08-04T22:46:24.964Z,99699.63
2022-08-04T22:48:52.919Z,99702.94
2022-08-04T22:51:20.784Z,99687.94
2022-08-04T22:53:50.337Z,99680.53
2022-08-04T22:56:37.165Z,99674.28
2022-08-04T22:59:10.983Z,99685.78
2022-08-04T23:01:58.071Z,99695.78
2022-08-04T23:04:26.078Z,99693.50
2022-08-04T23:06:54.825Z,99699.81
2022-08-04T23:09:26.967Z,99702.22
2022-08-04T23:12:27.585Z,99703.94
2022-08-04T23:14:57.088Z,99696.09
2022-08-04T23:17:25.124Z,99703.28
2022-08-04T23:19:57.784Z,99686.06
2022-08-04T23:22:41.069Z,99693.81
2022-08-04T23:25:15.759Z,99695.50
2022-08-04T23:27:51.578Z,99695.06
2022-08-04T23:30:29.823Z,99701.66
2022-08-04T23:32:58.224Z,99701.66
2022-08-04T23:35:25.555Z,99704.31
2022-08-04T23:37:56.953Z,99708.72
2022-08-04T23:40:34.178Z,99711.47
2022-08-04T23:43:12.078Z,99708.72
2022-08-04T23:46:07.003Z,99718.16
2022-08-04T23:48:36.809Z,99717.19
2022-08-04T23:51:15.063Z,99714.53
2022-08-04T23:54:02.997Z,99719.78
2022-08-04T23:56:33.199Z,99705.75
2022-08-04T23:59:03.801Z,99719.88
